Time;durP1;ratioP1;P1;durP2;ratioP2;P2;SDS_P1;SDS_P2;PMS_P1;PMS_P2;Temp;Humidity;BMP_temperature;BMP_pressure;BME280_temperature;BME280_humidity;BME280_pressure;Samples;Min_cycle;Max_cycle;Signal;HPM_P1;HPM_P2
2021/10/14 00:01:55;;;;;;;14.50;8.55;;;12.60;99.90;;;;;;5093630;28;20373;-70
2021/10/14 00:04:21;;;;;;;17.48;8.75;;;12.70;99.90;;;;;;5094431;28;20032;-70
2021/10/14 00:06:46;;;;;;;16.10;8.23;;;12.60;99.90;;;;;;5093101;28;20077;-70
2021/10/14 00:09:13;;;;;;;11.13;7.95;;;12.60;99.90;;;;;;5094169;28;20085;-70
2021/10/14 00:11:39;;;;;;;12.55;7.85;;;12.60;99.90;;;;;;5093351;28;20380;-70
2021/10/14 00:14:05;;;;;;;14.25;7.22;;;12.60;99.90;;;;;;5094758;28;20032;-70
2021/10/14 00:16:31;;;;;;;11.25;6.75;;;12.60;99.90;;;;;;5094110;28;20115;-70
2021/10/14 00:18:57;;;;;;;15.40;6.97;;;12.60;99.90;;;;;;5093871;28;20467;-70
2021/10/14 00:21:23;;;;;;;12.55;6.68;;;12.60;99.90;;;;;;5092980;28;20356;-70
2021/10/14 00:23:49;;;;;;;13.13;6.35;;;12.70;99.90;;;;;;5094251;28;20032;-70
2021/10/14 00:26:14;;;;;;;11.07;6.05;;;12.60;99.90;;;;;;5094099;28;20572;-70
2021/10/14 00:28:40;;;;;;;14.07;6.57;;;12.60;99.90;;;;;;5094227;28;20039;-70
2021/10/14 00:31:05;;;;;;;10.90;6.28;;;12.60;99.90;;;;;;5092710;28;20048;-70
2021/10/14 00:33:31;;;;;;;11.77;6.63;;;12.70;99.90;;;;;;5093552;28;20373;-70
2021/10/14 00:35:56;;;;;;;13.93;6.10;;;12.70;99.90;;;;;;5093991;28;20044;-70
2021/10/14 00:38:22;;;;;;;11.48;5.90;;;12.70;99.90;;;;;;5094079;28;20047;-70
2021/10/14 00:40:48;;;;;;;12.45;6.70;;;12.70;99.90;;;;;;5093837;28;20036;-70
2021/10/14 00:43:14;;;;;;;11.65;5.40;;;12.70;99.90;;;;;;5093019;28;20044;-70
2021/10/14 00:45:39;;;;;;;13.50;5.95;;;12.70;99.90;;;;;;5093157;28;20058;-70
2021/10/14 00:48:05;;;;;;;9.60;5.68;;;12.70;99.90;;;;;;5094115;28;20396;-70
2021/10/14 00:50:31;;;;;;;15.38;6.30;;;12.70;99.90;;;;;;5093581;28;20047;-70
2021/10/14 00:52:57;;;;;;;15.27;5.95;;;12.70;99.90;;;;;;5092360;28;20048;-70
2021/10/14 00:55:23;;;;;;;13.20;6.00;;;12.70;99.90;;;;;;5092763;28;20047;-70
2021/10/14 00:57:49;;;;;;;15.93;6.22;;;12.70;99.90;;;;;;5093640;28;20496;-70
2021/10/14 01:00:15;;;;;;;13.63;6.43;;;12.70;99.90;;;;;;5093322;28;20053;-70
2021/10/14 01:02:42;;;;;;;12.05;5.88;;;12.70;99.90;;;;;;5092301;28;20036;-70
2021/10/14 01:05:08;;;;;;;10.18;5.80;;;12.70;99.90;;;;;;5094127;28;20119;-70
2021/10/14 01:07:34;;;;;;;14.40;5.97;;;12.70;99.90;;;;;;5093402;28;20051;-69
2021/10/14 01:10:00;;;;;;;12.48;6.22;;;12.70;99.90;;;;;;5093722;28;20031;-69
2021/10/14 01:12:27;;;;;;;11.88;5.72;;;12.70;99.90;;;;;;5093498;28;20476;-69
2021/10/14 01:14:52;;;;;;;15.80;6.15;;;12.60;99.90;;;;;;5093504;28;20051;-70
2021/10/14 01:17:18;;;;;;;9.45;5.85;;;12.60;99.90;;;;;;5092248;28;20044;-70
2021/10/14 01:19:44;;;;;;;11.95;5.50;;;12.60;99.90;;;;;;5093015;28;20047;-70
2021/10/14 01:22:10;;;;;;;9.18;5.82;;;12.50;99.90;;;;;;5093724;28;20067;-70
2021/10/14 01:24:36;;;;;;;11.73;5.95;;;12.50;99.90;;;;;;5093321;28;20046;-70
2021/10/14 01:27:07;;;;;;;16.02;6.30;;;12.50;99.90;;;;;;5093702;28;20039;-70
2021/10/14 01:29:33;;;;;;;13.40;5.93;;;12.50;99.90;;;;;;5092751;28;20123;-70
2021/10/14 01:32:00;;;;;;;12.63;6.40;;;12.50;99.90;;;;;;5093376;28;20029;-69
2021/10/14 01:34:26;;;;;;;13.65;6.65;;;12.50;99.90;;;;;;5093617;28;20040;-70
2021/10/14 01:36:51;;;;;;;11.57;6.43;;;12.50;99.90;;;;;;5093419;28;20119;-70
2021/10/14 01:39:17;;;;;;;9.80;5.85;;;12.40;99.90;;;;;;5093174;28;20476;-70
2021/10/14 01:41:47;;;;;;;12.65;5.90;;;12.50;99.90;;;;;;5093500;28;20115;-70
2021/10/14 01:44:13;;;;;;;13.82;5.45;;;12.40;99.90;;;;;;5094688;28;20063;-70
2021/10/14 01:46:39;;;;;;;13.63;5.72;;;12.40;99.90;;;;;;5096173;28;20079;-70
2021/10/14 01:49:05;;;;;;;11.32;5.25;;;12.40;99.90;;;;;;5097036;28;20075;-70
2021/10/14 01:51:31;;;;;;;14.63;5.63;;;12.40;99.90;;;;;;5096091;28;20055;-70
2021/10/14 01:53:56;;;;;;;9.75;5.05;;;12.40;99.90;;;;;;5097428;28;20044;-70
2021/10/14 01:56:22;;;;;;;14.52;5.68;;;12.40;99.90;;;;;;5097015;28;20047;-70
2021/10/14 01:58:47;;;;;;;12.75;5.47;;;12.40;99.90;;;;;;5096604;28;20040;-70
2021/10/14 02:01:13;;;;;;;12.75;5.53;;;12.40;99.90;;;;;;5097192;28;20028;-70
2021/10/14 02:03:38;;;;;;;12.65;5.32;;;12.40;99.90;;;;;;5096345;28;20384;-70
2021/10/14 02:06:04;;;;;;;14.27;5.88;;;12.40;99.90;;;;;;5096758;28;20476;-69
2021/10/14 02:08:29;;;;;;;12.43;4.85;;;12.40;99.90;;;;;;5095699;28;20050;-70
2021/10/14 02:10:55;;;;;;;11.43;4.32;;;12.50;99.90;;;;;;5095923;28;20055;-70
2021/10/14 02:13:21;;;;;;;18.75;4.40;;;12.40;99.90;;;;;;5097112;28;20036;-69
2021/10/14 02:15:46;;;;;;;10.35;4.80;;;12.50;99.90;;;;;;5096610;28;20067;-69
2021/10/14 02:18:12;;;;;;;9.95;4.07;;;12.50;99.90;;;;;;5096291;28;20044;-69
2021/10/14 02:20:37;;;;;;;9.05;4.15;;;12.50;99.90;;;;;;5096700;28;20376;-69
2021/10/14 02:23:03;;;;;;;7.50;4.20;;;12.60;99.90;;;;;;5096546;28;20492;-70
2021/10/14 02:25:28;;;;;;;10.68;4.15;;;12.60;99.90;;;;;;5096604;28;20032;-70
2021/10/14 02:27:54;;;;;;;13.00;5.45;;;12.60;99.90;;;;;;5095442;28;20120;-69
2021/10/14 02:30:20;;;;;;;9.80;3.65;;;12.60;99.90;;;;;;5094750;28;20438;-70
2021/10/14 02:32:45;;;;;;;12.40;3.63;;;12.50;99.90;;;;;;5096230;28;20099;-70
2021/10/14 02:35:11;;;;;;;11.05;4.05;;;12.50;99.90;;;;;;5096696;28;20464;-70
2021/10/14 02:37:37;;;;;;;7.68;3.92;;;12.50;99.90;;;;;;5095000;28;20052;-70
2021/10/14 02:40:04;;;;;;;11.82;3.70;;;12.50;99.90;;;;;;5095828;28;20078;-70
2021/10/14 02:42:30;;;;;;;11.68;4.60;;;12.50;99.90;;;;;;5096451;28;20545;-70
2021/10/14 02:44:56;;;;;;;10.68;3.65;;;12.50;99.90;;;;;;5096339;28;20044;-70
2021/10/14 02:47:21;;;;;;;12.00;3.88;;;12.50;99.90;;;;;;5096008;28;20123;-70
2021/10/14 02:49:47;;;;;;;12.85;3.90;;;12.40;99.90;;;;;;5094300;28;20079;-70
2021/10/14 02:52:13;;;;;;;7.50;3.95;;;12.50;99.90;;;;;;5095992;28;20116;-70
2021/10/14 02:54:38;;;;;;;11.52;3.85;;;12.40;99.90;;;;;;5095305;28;20040;-70
2021/10/14 02:57:04;;;;;;;10.73;3.92;;;12.40;99.90;;;;;;5095917;28;20043;-70
2021/10/14 02:59:29;;;;;;;12.13;3.83;;;12.40;99.90;;;;;;5095620;28;20078;-70
2021/10/14 03:01:55;;;;;;;6.80;3.67;;;12.40;99.90;;;;;;5095789;28;20036;-70
2021/10/14 03:04:21;;;;;;;11.70;4.22;;;12.40;99.90;;;;;;5095652;28;20123;-70
2021/10/14 03:06:47;;;;;;;13.15;3.83;;;12.40;99.90;;;;;;5095704;28;20070;-70
2021/10/14 03:09:12;;;;;;;8.68;4.00;;;12.40;99.90;;;;;;5094101;28;20140;-70
2021/10/14 03:11:38;;;;;;;9.48;4.43;;;12.40;99.90;;;;;;5095536;28;20051;-70
2021/10/14 03:14:03;;;;;;;11.40;3.63;;;12.30;99.90;;;;;;5095645;28;20476;-70
2021/10/14 03:16:29;;;;;;;11.38;3.92;;;12.30;99.90;;;;;;5095495;28;20027;-70
2021/10/14 03:18:55;;;;;;;8.48;3.85;;;12.30;99.90;;;;;;5093948;28;20055;-70
2021/10/14 03:21:22;;;;;;;8.93;4.60;;;12.20;99.90;;;;;;5095687;28;20495;-70
2021/10/14 03:23:48;;;;;;;10.70;4.35;;;12.20;99.90;;;;;;5095562;28;20042;-70
2021/10/14 03:26:14;;;;;;;10.18;3.30;;;12.20;99.90;;;;;;5095363;28;20115;-70
2021/10/14 03:28:39;;;;;;;7.80;3.88;;;12.20;99.90;;;;;;5095144;28;20054;-70
2021/10/14 03:31:05;;;;;;;10.95;3.60;;;12.20;99.90;;;;;;5095366;28;20495;-69
2021/10/14 03:33:31;;;;;;;8.95;3.95;;;12.10;99.90;;;;;;5093869;28;20043;-70
2021/10/14 03:35:56;;;;;;;6.68;3.33;;;12.10;99.90;;;;;;5095077;28;20396;-70
2021/10/14 03:38:22;;;;;;;9.38;4.05;;;12.10;99.90;;;;;;5093641;28;20051;-70
2021/10/14 03:40:48;;;;;;;15.00;3.65;;;12.10;99.90;;;;;;5076370;28;20044;-69
2021/10/14 03:43:14;;;;;;;9.52;3.90;;;12.10;99.90;;;;;;5093878;28;20046;-70
2021/10/14 03:45:40;;;;;;;12.68;3.78;;;12.10;99.90;;;;;;5095034;28;20044;-70
2021/10/14 03:48:05;;;;;;;9.32;4.78;;;12.20;99.90;;;;;;5093803;28;20054;-70
2021/10/14 03:50:31;;;;;;;10.25;4.82;;;12.10;99.90;;;;;;5093921;28;20371;-70
2021/10/14 03:52:57;;;;;;;6.47;4.07;;;12.10;99.90;;;;;;5095180;28;20453;-70
2021/10/14 03:55:22;;;;;;;12.88;4.85;;;12.10;99.90;;;;;;5093874;28;20446;-70
2021/10/14 03:57:48;;;;;;;12.07;4.93;;;12.20;99.90;;;;;;5094704;28;20044;-70
2021/10/14 04:00:14;;;;;;;7.95;5.18;;;12.20;99.90;;;;;;5094701;28;20039;-70
2021/10/14 04:02:40;;;;;;;11.32;5.47;;;12.20;99.90;;;;;;5093843;28;20358;-69
2021/10/14 04:05:06;;;;;;;10.13;5.53;;;12.30;99.90;;;;;;5093568;28;20443;-70
2021/10/14 04:07:31;;;;;;;10.63;5.88;;;12.30;99.90;;;;;;5092517;28;20480;-69
2021/10/14 04:09:57;;;;;;;11.57;6.95;;;12.30;99.90;;;;;;5094327;28;20043;-70
2021/10/14 04:12:23;;;;;;;12.85;6.53;;;12.30;99.90;;;;;;5093110;28;20143;-69
2021/10/14 04:14:49;;;;;;;13.57;6.95;;;12.20;99.90;;;;;;5093132;28;20101;-70
2021/10/14 04:17:14;;;;;;;13.93;6.03;;;12.30;99.90;;;;;;5094240;28;20377;-69
2021/10/14 04:19:40;;;;;;;13.55;6.38;;;12.30;99.90;;;;;;5094018;28;20115;-70
2021/10/14 04:22:05;;;;;;;9.13;6.47;;;12.20;99.90;;;;;;5092984;28;20119;-70
2021/10/14 04:24:32;;;;;;;12.35;6.07;;;12.30;99.90;;;;;;5094409;28;20116;-69
2021/10/14 04:26:58;;;;;;;10.68;5.68;;;12.30;99.90;;;;;;5094362;28;20076;-69
2021/10/14 04:29:24;;;;;;;12.23;5.75;;;12.30;99.90;;;;;;5094028;28;20472;-70
2021/10/14 04:31:50;;;;;;;10.80;5.40;;;12.20;99.90;;;;;;5092825;28;20077;-69
2021/10/14 04:34:17;;;;;;;8.25;5.75;;;12.30;99.90;;;;;;5094555;28;20036;-69
2021/10/14 04:36:43;;;;;;;8.32;5.53;;;12.30;99.90;;;;;;5093984;28;20066;-70
2021/10/14 04:39:09;;;;;;;9.77;5.80;;;12.30;99.90;;;;;;5092670;28;20052;-70
2021/10/14 04:41:35;;;;;;;14.02;5.97;;;12.30;99.90;;;;;;5093869;28;20089;-70
2021/10/14 04:44:01;;;;;;;9.70;5.70;;;12.30;99.90;;;;;;5093976;28;20545;-69
2021/10/14 04:46:27;;;;;;;10.85;5.75;;;12.30;99.90;;;;;;5093765;28;20040;-70
2021/10/14 04:48:53;;;;;;;7.95;5.55;;;12.30;99.90;;;;;;5093354;28;20089;-70
2021/10/14 04:51:18;;;;;;;11.20;5.80;;;12.30;99.90;;;;;;5093621;28;20044;-70
2021/10/14 04:53:44;;;;;;;11.85;6.25;;;12.30;99.90;;;;;;5094524;28;20384;-70
2021/10/14 04:56:09;;;;;;;12.82;6.80;;;12.30;99.90;;;;;;5092631;28;20442;-69
2021/10/14 04:58:35;;;;;;;13.32;6.40;;;12.30;99.90;;;;;;5093650;28;20047;-70
2021/10/14 05:01:00;;;;;;;11.07;5.55;;;12.30;99.90;;;;;;5093711;28;20121;-70
2021/10/14 05:03:26;;;;;;;16.23;6.57;;;12.40;99.90;;;;;;5092336;28;20040;-69
2021/10/14 05:05:52;;;;;;;12.50;6.90;;;12.40;99.90;;;;;;5093476;28;20039;-70
2021/10/14 05:08:17;;;;;;;13.57;7.18;;;12.40;99.90;;;;;;5093449;28;20055;-69
2021/10/14 05:10:43;;;;;;;13.18;7.63;;;12.40;99.90;;;;;;5092318;28;20073;-70
2021/10/14 05:13:09;;;;;;;12.50;8.15;;;12.40;99.90;;;;;;5094086;28;20036;-70
2021/10/14 05:15:38;;;;;;;15.88;8.55;;;12.40;99.90;;;;;;5094601;28;20531;-70
2021/10/14 05:18:04;;;;;;;17.23;9.90;;;12.40;99.90;;;;;;5094163;28;20076;-69
2021/10/14 05:20:30;;;;;;;19.35;9.95;;;12.50;99.90;;;;;;5093922;28;20036;-70
2021/10/14 05:22:55;;;;;;;20.27;10.90;;;12.50;99.90;;;;;;5093345;28;20131;-69
2021/10/14 05:25:21;;;;;;;19.58;12.15;;;12.40;99.90;;;;;;5093384;28;20102;-70
2021/10/14 05:27:47;;;;;;;18.17;11.82;;;12.50;99.90;;;;;;5091937;28;20051;-70
2021/10/14 05:30:12;;;;;;;15.65;11.48;;;12.50;99.90;;;;;;5092954;28;20044;-70
2021/10/14 05:32:38;;;;;;;19.75;12.15;;;12.50;99.90;;;;;;5093071;28;20040;-69
2021/10/14 05:35:04;;;;;;;16.90;11.75;;;12.50;99.90;;;;;;5093800;28;20040;-70
2021/10/14 05:37:30;;;;;;;16.85;10.57;;;12.50;99.90;;;;;;5093450;28;20075;-70
2021/10/14 05:39:56;;;;;;;17.88;11.05;;;12.50;99.90;;;;;;5092730;28;20492;-70
2021/10/14 05:42:21;;;;;;;16.75;10.32;;;12.50;99.90;;;;;;5093239;28;20543;-70
2021/10/14 05:44:47;;;;;;;16.85;10.63;;;12.50;99.90;;;;;;5091768;28;20119;-70
2021/10/14 05:47:13;;;;;;;16.35;10.40;;;12.50;99.90;;;;;;5093026;28;20479;-70
2021/10/14 05:49:39;;;;;;;18.95;10.30;;;12.50;99.90;;;;;;5091332;28;20039;-70
2021/10/14 05:52:05;;;;;;;15.38;10.38;;;12.50;99.90;;;;;;5093417;28;20501;-70
2021/10/14 05:54:31;;;;;;;19.20;10.38;;;12.50;99.90;;;;;;5093384;28;20089;-70
2021/10/14 05:56:58;;;;;;;16.25;10.25;;;12.50;99.90;;;;;;5093324;28;20128;-70
2021/10/14 05:59:26;;;;;;;20.80;10.32;;;12.50;99.90;;;;;;5092789;28;20051;-70
2021/10/14 06:01:52;;;;;;;13.27;8.98;;;12.50;99.90;;;;;;5093115;28;20197;-70
2021/10/14 06:04:18;;;;;;;15.27;10.15;;;12.50;99.90;;;;;;5093097;28;20529;-70
2021/10/14 06:06:44;;;;;;;17.63;9.90;;;12.50;99.90;;;;;;5091832;28;20468;-69
2021/10/14 06:09:09;;;;;;;19.02;10.75;;;12.50;99.90;;;;;;5092872;28;20082;-69
2021/10/14 06:11:35;;;;;;;20.65;10.38;;;12.60;99.90;;;;;;5092871;28;20036;-69
2021/10/14 06:14:01;;;;;;;18.73;10.23;;;12.60;99.90;;;;;;5093350;28;20032;-68
2021/10/14 06:16:26;;;;;;;19.73;11.20;;;12.60;99.90;;;;;;5092659;28;20496;-69
2021/10/14 06:18:52;;;;;;;19.25;11.25;;;12.60;99.90;;;;;;5092472;28;20059;-69
2021/10/14 06:21:17;;;;;;;19.17;10.70;;;12.60;99.90;;;;;;5092759;28;20040;-69
2021/10/14 06:23:43;;;;;;;20.20;11.88;;;12.60;99.90;;;;;;5091437;28;20040;-69
2021/10/14 06:26:09;;;;;;;18.60;11.20;;;12.60;99.90;;;;;;5093069;28;20082;-69
2021/10/14 06:28:35;;;;;;;17.85;11.15;;;12.60;99.90;;;;;;5092689;28;20102;-69
2021/10/14 06:31:00;;;;;;;19.90;11.00;;;12.70;99.90;;;;;;5094689;28;20485;-69
2021/10/14 06:33:26;;;;;;;22.50;10.43;;;12.70;99.90;;;;;;5096323;28;20035;-69
2021/10/14 06:35:51;;;;;;;20.98;11.32;;;12.80;99.90;;;;;;5096398;28;20193;-69
2021/10/14 06:38:17;;;;;;;23.10;11.32;;;12.80;99.90;;;;;;5094821;28;20051;-69
2021/10/14 06:40:43;;;;;;;22.05;12.77;;;12.80;99.90;;;;;;5096175;28;20036;-70
2021/10/14 06:43:08;;;;;;;21.10;11.30;;;12.80;99.90;;;;;;5096203;28;20059;-69
2021/10/14 06:45:35;;;;;;;16.63;10.88;;;12.90;99.90;;;;;;5096012;28;20115;-68
2021/10/14 06:48:01;;;;;;;24.05;11.55;;;12.90;99.90;;;;;;5095923;28;20496;-69
2021/10/14 06:50:27;;;;;;;21.23;11.10;;;12.90;99.90;;;;;;5095592;28;20036;-69
2021/10/14 06:52:52;;;;;;;21.23;11.27;;;12.80;99.90;;;;;;5094637;28;20407;-69
2021/10/14 06:55:18;;;;;;;20.25;11.07;;;12.80;99.90;;;;;;5095967;28;20028;-69
2021/10/14 06:57:43;;;;;;;18.30;10.25;;;12.80;99.90;;;;;;5095773;28;20039;-69
2021/10/14 07:00:10;;;;;;;22.00;10.25;;;12.90;99.90;;;;;;5095418;28;20097;-69
2021/10/14 07:02:35;;;;;;;18.13;9.70;;;12.90;99.90;;;;;;5095659;28;20118;-69
2021/10/14 07:05:02;;;;;;;19.35;10.95;;;12.90;99.90;;;;;;5096324;28;20071;-69
2021/10/14 07:07:28;;;;;;;16.00;10.23;;;12.80;99.90;;;;;;5094498;28;20553;-69
2021/10/14 07:09:53;;;;;;;21.55;11.25;;;12.90;99.90;;;;;;5094433;28;20052;-69
2021/10/14 07:12:21;;;;;;;23.80;11.25;;;12.80;99.90;;;;;;5095641;28;20507;-69
2021/10/14 07:14:47;;;;;;;19.05;11.15;;;12.80;99.90;;;;;;5096031;28;20082;-70
2021/10/14 07:17:12;;;;;;;20.90;11.57;;;12.80;99.90;;;;;;5095291;28;20519;-70
2021/10/14 07:19:38;;;;;;;16.83;11.05;;;12.70;99.90;;;;;;5094691;28;20384;-69
2021/10/14 07:22:05;;;;;;;18.50;11.13;;;12.80;99.90;;;;;;5095448;28;20123;-69
2021/10/14 07:24:31;;;;;;;22.00;11.68;;;12.80;99.90;;;;;;5095675;28;20047;-70
2021/10/14 07:26:58;;;;;;;20.20;11.10;;;12.80;99.90;;;;;;5095351;28;20434;-69
2021/10/14 07:29:24;;;;;;;18.75;11.23;;;12.80;99.90;;;;;;5094921;28;20396;-70
2021/10/14 07:31:50;;;;;;;22.00;11.98;;;12.80;99.90;;;;;;5095285;28;20046;-69
2021/10/14 07:34:15;;;;;;;16.17;10.70;;;12.80;99.90;;;;;;5094064;28;20071;-70
2021/10/14 07:36:41;;;;;;;22.13;11.23;;;12.80;99.90;;;;;;5095443;28;20036;-69
2021/10/14 07:39:06;;;;;;;20.58;10.82;;;12.90;99.90;;;;;;5093382;28;20161;-69
2021/10/14 07:41:32;;;;;;;18.60;10.75;;;12.90;99.90;;;;;;5094787;28;20040;-69
2021/10/14 07:44:00;;;;;;;16.92;11.23;;;13.00;99.90;;;;;;5094927;28;20078;-70
2021/10/14 07:46:26;;;;;;;15.77;10.52;;;13.00;99.90;;;;;;5094812;28;20044;-70
2021/10/14 07:48:52;;;;;;;21.73;12.05;;;13.00;99.90;;;;;;5094655;28;20051;-70
2021/10/14 07:51:17;;;;;;;25.08;11.32;;;13.00;99.90;;;;;;5094845;28;20040;-70
2021/10/14 07:53:43;;;;;;;22.65;10.45;;;13.00;99.90;;;;;;5094922;28;20032;-70
2021/10/14 07:56:08;;;;;;;18.00;10.60;;;12.90;99.90;;;;;;5094904;28;20384;-70
2021/10/14 07:58:34;;;;;;;17.33;11.52;;;13.00;99.90;;;;;;5094421;28;20044;-70
2021/10/14 08:00:59;;;;;;;17.33;11.23;;;13.10;99.90;;;;;;5093872;28;20036;-70
2021/10/14 08:03:25;;;;;;;17.80;10.35;;;13.10;99.90;;;;;;5094306;28;20157;-70
2021/10/14 08:05:51;;;;;;;14.63;10.27;;;13.10;99.90;;;;;;5094942;28;20044;-70
2021/10/14 08:08:16;;;;;;;18.30;10.63;;;13.10;99.90;;;;;;5094361;28;20075;-70
2021/10/14 08:10:42;;;;;;;18.02;10.95;;;13.10;99.90;;;;;;5094015;28;20036;-69
2021/10/14 08:13:13;;;;;;;14.13;10.35;;;13.10;99.90;;;;;;5093023;28;20051;-70
2021/10/14 08:15:41;;;;;;;12.13;9.23;;;13.20;99.90;;;;;;5094619;28;20131;-68
2021/10/14 08:18:07;;;;;;;16.45;10.05;;;13.20;99.90;;;;;;5093222;28;20098;-69
2021/10/14 08:20:34;;;;;;;15.35;8.63;;;13.20;99.90;;;;;;5094068;28;20464;-70
2021/10/14 08:23:01;;;;;;;13.68;7.78;;;13.30;99.90;;;;;;5094381;28;20385;-69
2021/10/14 08:25:26;;;;;;;30.00;15.68;;;13.30;99.90;;;;;;5094159;28;20391;-69
2021/10/14 08:27:52;;;;;;;46.00;10.50;;;13.40;99.90;;;;;;5094108;28;20047;-69
2021/10/14 08:30:18;;;;;;;12.45;6.95;;;13.40;99.90;;;;;;5093650;28;20039;-69
2021/10/14 08:32:43;;;;;;;13.75;7.95;;;13.40;99.90;;;;;;5092697;28;20047;-69
2021/10/14 08:35:10;;;;;;;17.95;7.82;;;13.30;99.90;;;;;;5093201;28;20036;-70
2021/10/14 08:37:36;;;;;;;12.93;6.95;;;13.40;99.90;;;;;;5093915;28;20131;-70
2021/10/14 08:40:02;;;;;;;8.80;6.03;;;13.30;99.90;;;;;;5093661;28;20085;-69
2021/10/14 08:42:28;;;;;;;11.43;6.57;;;13.30;99.90;;;;;;5093725;28;20032;-70
2021/10/14 08:44:54;;;;;;;9.60;6.63;;;13.30;99.90;;;;;;5093928;28;20170;-70
2021/10/14 08:47:19;;;;;;;8.25;6.28;;;13.30;99.90;;;;;;5093607;28;20044;-70
2021/10/14 08:49:47;;;;;;;13.68;6.45;;;13.30;99.90;;;;;;5093754;28;20043;-70
2021/10/14 08:52:15;;;;;;;11.40;5.95;;;13.20;99.90;;;;;;5093539;28;20381;-69
2021/10/14 08:54:41;;;;;;;12.02;7.13;;;13.20;99.90;;;;;;5093848;28;20109;-69
2021/10/14 08:57:07;;;;;;;11.52;5.82;;;13.20;99.90;;;;;;5094091;28;20384;-69
2021/10/14 08:59:34;;;;;;;28.48;8.85;;;13.30;99.90;;;;;;5093189;28;20043;-68
2021/10/14 09:02:09;;;;;;;65.88;13.10;;;13.40;99.90;;;;;;5092644;28;20089;-69
2021/10/14 09:04:53;;;;;;;10.60;6.45;;;13.40;99.90;;;;;;5092571;28;20040;-70
2021/10/14 09:07:21;;;;;;;8.73;6.20;;;13.50;99.90;;;;;;5092428;28;20047;-70
2021/10/14 09:09:48;;;;;;;7.95;6.40;;;13.50;99.90;;;;;;5093121;28;20405;-70
2021/10/14 09:12:16;;;;;;;14.25;7.03;;;13.50;99.90;;;;;;5093625;28;20101;-70
2021/10/14 09:14:55;;;;;;;8.80;5.93;;;13.50;99.90;;;;;;5092397;28;20407;-70
2021/10/14 09:17:42;;;;;;;8.73;5.90;;;13.50;99.90;;;;;;5091944;28;20044;-70
2021/10/14 09:20:30;;;;;;;10.82;5.85;;;13.60;99.90;;;;;;5093031;28;20119;-70
2021/10/14 09:23:21;;;;;;;9.18;6.30;;;13.60;99.90;;;;;;5092568;28;20522;-70
2021/10/14 09:25:51;;;;;;;11.85;6.13;;;13.70;99.90;;;;;;5092117;28;20101;-70
2021/10/14 09:28:28;;;;;;;10.60;6.00;;;13.60;99.90;;;;;;5093837;28;20384;-70
2021/10/14 09:31:05;;;;;;;7.60;5.43;;;13.70;99.90;;;;;;5092603;28;20043;-70
2021/10/14 09:33:37;;;;;;;15.68;6.15;;;13.80;99.90;;;;;;5093424;28;20083;-70
2021/10/14 09:36:10;;;;;;;9.70;5.18;;;13.70;99.90;;;;;;5093720;28;20048;-69
2021/10/14 09:38:36;;;;;;;;;;;13.80;99.90;;;;;;5092083;28;20040;-70
2021/10/14 09:41:07;;;;;;;9.18;5.30;;;13.70;99.90;;;;;;5093114;28;19916;-69
2021/10/14 09:43:33;;;;;;;11.10;5.72;;;13.80;99.90;;;;;;5092088;28;20066;-70
2021/10/14 09:45:59;;;;;;;7.32;5.75;;;13.70;99.90;;;;;;5091853;28;20040;-70
2021/10/14 09:48:24;;;;;;;8.35;5.80;;;13.70;99.90;;;;;;5091848;28;20089;-70
2021/10/14 09:50:50;;;;;;;12.45;5.20;;;13.70;99.90;;;;;;5091753;28;20044;-70
2021/10/14 09:53:27;;;;;;;11.60;7.03;;;13.80;99.90;;;;;;5093254;28;20076;-70
2021/10/14 09:55:54;;;;;;;7.97;5.97;;;13.80;99.90;;;;;;5092888;28;20479;-70
2021/10/14 09:58:22;;;;;;;10.25;5.57;;;13.80;99.90;;;;;;5093353;28;20043;-70
2021/10/14 10:00:48;;;;;;;7.90;5.72;;;13.80;99.90;;;;;;5092940;28;20044;-70
2021/10/14 10:03:21;;;;;;;8.45;5.57;;;13.80;99.90;;;;;;5093191;28;20039;-70
2021/10/14 10:05:52;;;;;;;352.30;39.42;;;13.80;99.90;;;;;;5093734;28;20044;-70
2021/10/14 10:08:30;;;;;;;15.30;5.85;;;13.90;99.90;;;;;;5095756;28;20036;-70
2021/10/14 10:11:00;;;;;;;9.43;5.65;;;14.00;99.90;;;;;;5096847;28;20111;-70
2021/10/14 10:13:27;;;;;;;7.03;5.88;;;14.00;99.90;;;;;;5095487;28;20044;-70
2021/10/14 10:15:53;;;;;;;14.95;6.60;;;14.10;99.90;;;;;;5096928;28;20125;-70
2021/10/14 10:18:27;;;;;;;10.05;6.35;;;14.10;99.90;;;;;;5095200;28;20090;-70
2021/10/14 10:21:06;;;;;;;11.68;7.65;;;14.10;99.90;;;;;;5095593;28;20051;-70
2021/10/14 10:23:46;;;;;;;11.52;6.93;;;14.10;99.90;;;;;;5096373;28;20496;-70
2021/10/14 10:26:34;;;;;;;12.25;7.82;;;14.20;99.90;;;;;;5096838;28;20465;-70
2021/10/14 10:29:00;;;;;;;11.15;7.80;;;14.20;99.90;;;;;;5094687;28;20044;-70
2021/10/14 10:31:49;;;;;;;10.57;6.82;;;14.10;99.90;;;;;;5096499;28;20044;-70
2021/10/14 10:40:22;;;;;;;10.35;6.13;;;14.20;99.90;;;;;;5091972;28;20052;-70
2021/10/14 10:42:59;;;;;;;12.07;6.20;;;14.30;99.90;;;;;;5094365;28;20040;-69
2021/10/14 10:45:43;;;;;;;9.63;6.22;;;14.30;99.90;;;;;;5093824;28;20062;-69
2021/10/14 10:48:09;;;;;;;10.02;6.15;;;14.40;99.90;;;;;;5095681;28;20036;-70
2021/10/14 10:50:46;;;;;;;10.40;6.50;;;14.50;99.90;;;;;;5096107;28;20054;-69
2021/10/14 10:53:15;;;;;;;10.05;5.90;;;14.60;99.90;;;;;;5095377;28;20134;-69
2021/10/14 10:55:57;;;;;;;10.20;5.95;;;14.50;99.90;;;;;;5095739;28;20042;-69
2021/10/14 10:58:31;;;;;;;10.23;5.28;;;14.50;99.90;;;;;;5094737;28;20044;-69
2021/10/14 11:00:58;;;;;;;10.85;4.75;;;14.50;99.90;;;;;;5095857;28;20392;-69
2021/10/14 11:03:26;;;;;;;959.45;168.90;;;14.50;99.90;;;;;;5095836;28;20375;-70
2021/10/14 11:05:55;;;;;;;9.40;4.35;;;14.60;99.90;;;;;;5095710;28;20089;-70
2021/10/14 11:08:25;;;;;;;7.55;4.32;;;14.60;99.90;;;;;;5093822;28;20039;-70
2021/10/14 11:10:54;;;;;;;10.38;4.53;;;14.60;99.90;;;;;;5094302;28;20050;-70
2021/10/14 11:13:21;;;;;;;5.00;3.78;;;14.60;99.90;;;;;;5094580;28;20054;-70
2021/10/14 11:15:52;;;;;;;10.50;3.08;;;14.60;99.90;;;;;;5095426;28;20044;-69
2021/10/14 11:18:18;;;;;;;662.70;107.35;;;14.60;99.90;;;;;;5093917;28;20048;-68
2021/10/14 11:20:50;;;;;;;7.95;2.75;;;14.70;99.90;;;;;;5094405;28;20118;-70
2021/10/14 11:23:16;;;;;;;3.70;2.45;;;14.70;99.90;;;;;;5094731;28;20048;-70
2021/10/14 11:25:42;;;;;;;6.70;2.67;;;14.70;99.90;;;;;;5095361;28;20346;-70
2021/10/14 11:28:10;;;;;;;6.93;2.55;;;14.60;99.90;;;;;;5095462;28;20040;-70
2021/10/14 11:30:44;;;;;;;7.15;2.60;;;14.60;99.90;;;;;;5095065;28;20119;-70
2021/10/14 11:33:31;;;;;;;7.32;2.10;;;14.60;99.90;;;;;;5095414;28;20036;-70
2021/10/14 11:35:58;;;;;;;5.03;2.10;;;14.60;99.90;;;;;;5094935;28;20499;-70
2021/10/14 11:38:24;;;;;;;4.18;2.50;;;14.70;99.90;;;;;;5095081;28;20052;-70
2021/10/14 11:40:49;;;;;;;9.48;2.85;;;14.70;99.90;;;;;;5094832;28;20036;-70
2021/10/14 11:43:15;;;;;;;3.17;2.45;;;14.70;99.90;;;;;;5093673;28;20036;-70
2021/10/14 11:45:43;;;;;;;8.30;2.90;;;14.70;99.90;;;;;;5095497;28;20040;-70
2021/10/14 11:48:34;;;;;;;4.85;2.67;;;14.70;99.90;;;;;;5095322;28;20044;-69
2021/10/14 11:51:08;;;;;;;7.03;3.13;;;14.80;99.90;;;;;;5093483;28;20052;-71
2021/10/14 11:53:35;;;;;;;6.50;3.00;;;14.80;99.90;;;;;;5094805;28;20063;-70
2021/10/14 11:56:05;;;;;;;8.50;3.95;;;14.80;99.90;;;;;;5090491;28;20040;-71
2021/10/14 11:58:32;;;;;;;7.07;3.15;;;14.90;99.90;;;;;;5072753;28;20047;-71
2021/10/14 12:01:04;;;;;;;6.60;3.13;;;14.90;99.90;;;;;;5073472;28;20044;-70
2021/10/14 12:03:31;;;;;;;7.47;3.15;;;15.00;99.90;;;;;;5073100;28;20111;-70
2021/10/14 12:05:57;;;;;;;23.58;5.38;;;14.90;99.90;;;;;;5073189;28;20663;-69
2021/10/14 12:08:23;;;;;;;862.20;138.70;;;15.00;99.90;;;;;;5073151;28;20135;-69
2021/10/14 12:10:54;;;;;;;18.33;6.72;;;15.00;99.90;;;;;;5074033;28;20040;-69
2021/10/14 12:13:24;;;;;;;9.07;3.90;;;15.00;99.90;;;;;;5072959;28;20068;-70
2021/10/14 12:15:50;;;;;;;6.72;4.00;;;15.00;99.90;;;;;;5072998;28;20037;-69
2021/10/14 12:18:29;;;;;;;6.55;3.60;;;15.00;99.90;;;;;;5073882;28;20050;-69
2021/10/14 12:20:54;;;;;;;5.53;3.40;;;15.00;99.90;;;;;;5073961;28;20553;-69
2021/10/14 12:23:27;;;;;;;7.85;3.88;;;14.90;99.90;;;;;;5074613;28;20033;-69
2021/10/14 12:26:09;;;;;;;8.05;4.43;;;14.90;99.90;;;;;;5074286;28;20493;-69
2021/10/14 12:28:34;;;;;;;273.55;37.38;;;14.90;99.90;;;;;;5071660;28;20047;-68
2021/10/14 12:31:13;;;;;;;24.55;5.55;;;14.90;99.90;;;;;;5074084;28;20119;-68
2021/10/14 12:33:40;;;;;;;6.65;3.63;;;14.90;99.90;;;;;;5074334;28;20120;-68
2021/10/14 12:36:05;;;;;;;7.13;4.10;;;14.90;99.90;;;;;;5073844;28;20040;-68
2021/10/14 12:38:38;;;;;;;9.85;3.97;;;14.90;99.90;;;;;;5073569;28;20381;-68
2021/10/14 12:41:14;;;;;;;9.52;3.78;;;14.90;99.90;;;;;;5056233;28;20044;-68
2021/10/14 12:43:58;;;;;;;14.45;4.63;;;15.00;99.90;;;;;;5072483;28;20036;-69
2021/10/14 12:49:33;;;;;;;6.57;4.00;;;14.90;99.90;;;;;;5072259;28;20107;-70